sensor_id;sensor_type;location;lat;lon;timestamp;P1;durP1;ratioP1;P2;durP2;ratioP2
65045;SDS011;54657;52.022;5.534;2022-09-09T00:01:51;2.65;;;1.23;;
65045;SDS011;54657;52.022;5.534;2022-09-09T00:04:28;2.28;;;1.10;;
65045;SDS011;54657;52.022;5.534;2022-09-09T00:07:15;1.73;;;1.13;;
65045;SDS011;54657;52.022;5.534;2022-09-09T00:10:04;3.08;;;1.70;;
65045;SDS011;54657;52.022;5.534;2022-09-09T00:15:57;2.00;;;1.50;;
65045;SDS011;54657;52.022;5.534;2022-09-09T00:18:31;3.05;;;1.80;;
65045;SDS011;54657;52.022;5.534;2022-09-09T00:21:17;2.30;;;2.00;;
65045;SDS011;54657;52.022;5.534;2022-09-09T00:23:53;4.20;;;2.20;;
65045;SDS011;54657;52.022;5.534;2022-09-09T00:26:35;2.33;;;1.48;;
65045;SDS011;54657;52.022;5.534;2022-09-09T00:31:38;3.50;;;2.28;;
65045;SDS011;54657;52.022;5.534;2022-09-09T00:34:14;3.88;;;1.95;;
65045;SDS011;54657;52.022;5.534;2022-09-09T00:36:48;2.20;;;2.00;;
65045;SDS011;54657;52.022;5.534;2022-09-09T00:44:38;2.00;;;1.90;;
65045;SDS011;54657;52.022;5.534;2022-09-09T00:56:33;1.55;;;1.45;;
65045;SDS011;54657;52.022;5.534;2022-09-09T00:58:30;1.65;;;1.55;;
65045;SDS011;54657;52.022;5.534;2022-09-09T01:09:05;1.35;;;1.25;;
65045;SDS011;54657;52.022;5.534;2022-09-09T01:11:48;1.80;;;1.38;;
65045;SDS011;54657;52.022;5.534;2022-09-09T01:22:22;2.75;;;1.60;;
65045;SDS011;54657;52.022;5.534;2022-09-09T01:25:09;1.83;;;1.40;;
65045;SDS011;54657;52.022;5.534;2022-09-09T01:27:38;2.80;;;1.52;;
65045;SDS011;54657;52.022;5.534;2022-09-09T01:30:10;3.38;;;2.03;;
65045;SDS011;54657;52.022;5.534;2022-09-09T01:32:44;2.60;;;1.52;;
65045;SDS011;54657;52.022;5.534;2022-09-09T01:35:19;3.33;;;1.73;;
65045;SDS011;54657;52.022;5.534;2022-09-09T01:37:50;2.00;;;1.45;;
65045;SDS011;54657;52.022;5.534;2022-09-09T01:40:15;4.13;;;1.77;;
65045;SDS011;54657;52.022;5.534;2022-09-09T01:42:41;2.28;;;1.63;;
65045;SDS011;54657;52.022;5.534;2022-09-09T01:45:06;3.15;;;1.65;;
65045;SDS011;54657;52.022;5.534;2022-09-09T01:47:33;3.28;;;1.90;;
65045;SDS011;54657;52.022;5.534;2022-09-09T01:49:59;3.55;;;2.17;;
65045;SDS011;54657;52.022;5.534;2022-09-09T01:52:26;3.05;;;1.98;;
65045;SDS011;54657;52.022;5.534;2022-09-09T01:54:51;2.53;;;1.50;;
65045;SDS011;54657;52.022;5.534;2022-09-09T02:00:26;3.92;;;2.10;;
65045;SDS011;54657;52.022;5.534;2022-09-09T02:03:12;1.73;;;1.60;;
65045;SDS011;54657;52.022;5.534;2022-09-09T02:08:52;2.97;;;1.48;;
65045;SDS011;54657;52.022;5.534;2022-09-09T02:11:22;4.72;;;1.90;;
65045;SDS011;54657;52.022;5.534;2022-09-09T02:13:51;2.20;;;1.95;;
65045;SDS011;54657;52.022;5.534;2022-09-09T02:21:50;2.60;;;1.90;;
65045;SDS011;54657;52.022;5.534;2022-09-09T02:24:18;2.33;;;2.13;;
65045;SDS011;54657;52.022;5.534;2022-09-09T02:26:44;2.70;;;1.70;;
65045;SDS011;54657;52.022;5.534;2022-09-09T02:29:20;2.60;;;2.05;;
65045;SDS011;54657;52.022;5.534;2022-09-09T02:31:50;2.90;;;2.00;;
65045;SDS011;54657;52.022;5.534;2022-09-09T02:34:18;3.03;;;1.73;;
65045;SDS011;54657;52.022;5.534;2022-09-09T02:36:46;2.30;;;2.10;;
65045;SDS011;54657;52.022;5.534;2022-09-09T02:39:14;2.08;;;1.98;;
65045;SDS011;54657;52.022;5.534;2022-09-09T02:41:40;2.53;;;1.95;;
65045;SDS011;54657;52.022;5.534;2022-09-09T02:44:13;2.30;;;2.10;;
65045;SDS011;54657;52.022;5.534;2022-09-09T02:46:51;4.93;;;2.35;;
65045;SDS011;54657;52.022;5.534;2022-09-09T02:49:27;3.97;;;2.50;;
65045;SDS011;54657;52.022;5.534;2022-09-09T02:52:06;5.65;;;3.40;;
65045;SDS011;54657;52.022;5.534;2022-09-09T02:54:33;4.50;;;2.92;;
65045;SDS011;54657;52.022;5.534;2022-09-09T02:59:43;3.40;;;3.10;;
65045;SDS011;54657;52.022;5.534;2022-09-09T03:02:10;4.95;;;3.10;;
65045;SDS011;54657;52.022;5.534;2022-09-09T03:04:38;3.42;;;3.13;;
65045;SDS011;54657;52.022;5.534;2022-09-09T03:07:04;4.30;;;3.20;;
65045;SDS011;54657;52.022;5.534;2022-09-09T03:09:30;4.55;;;3.03;;
65045;SDS011;54657;52.022;5.534;2022-09-09T03:11:57;4.85;;;2.97;;
65045;SDS011;54657;52.022;5.534;2022-09-09T03:14:23;3.13;;;2.78;;
65045;SDS011;54657;52.022;5.534;2022-09-09T03:16:52;4.38;;;2.72;;
65045;SDS011;54657;52.022;5.534;2022-09-09T03:19:18;6.32;;;2.70;;
65045;SDS011;54657;52.022;5.534;2022-09-09T03:21:47;3.75;;;2.20;;
65045;SDS011;54657;52.022;5.534;2022-09-09T03:24:14;5.03;;;2.40;;
65045;SDS011;54657;52.022;5.534;2022-09-09T03:26:40;2.33;;;2.08;;
65045;SDS011;54657;52.022;5.534;2022-09-09T03:29:06;2.33;;;2.03;;
65045;SDS011;54657;52.022;5.534;2022-09-09T03:31:35;2.92;;;1.90;;
65045;SDS011;54657;52.022;5.534;2022-09-09T03:34:01;3.25;;;2.35;;
65045;SDS011;54657;52.022;5.534;2022-09-09T03:36:27;4.65;;;2.33;;
65045;SDS011;54657;52.022;5.534;2022-09-09T03:38:54;4.00;;;2.20;;
65045;SDS011;54657;52.022;5.534;2022-09-09T03:41:20;2.50;;;1.95;;
65045;SDS011;54657;52.022;5.534;2022-09-09T03:43:49;4.25;;;2.00;;
65045;SDS011;54657;52.022;5.534;2022-09-09T03:46:18;3.60;;;1.90;;
65045;SDS011;54657;52.022;5.534;2022-09-09T03:48:44;2.42;;;2.22;;
65045;SDS011;54657;52.022;5.534;2022-09-09T03:51:10;3.40;;;2.13;;
65045;SDS011;54657;52.022;5.534;2022-09-09T03:53:35;3.00;;;1.95;;
65045;SDS011;54657;52.022;5.534;2022-09-09T03:56:03;2.35;;;2.08;;
65045;SDS011;54657;52.022;5.534;2022-09-09T03:58:31;3.40;;;2.17;;
65045;SDS011;54657;52.022;5.534;2022-09-09T04:01:02;8.57;;;2.72;;
65045;SDS011;54657;52.022;5.534;2022-09-09T04:03:30;3.17;;;1.80;;
65045;SDS011;54657;52.022;5.534;2022-09-09T04:05:57;6.13;;;2.50;;
65045;SDS011;54657;52.022;5.534;2022-09-09T04:08:24;2.38;;;1.95;;
65045;SDS011;54657;52.022;5.534;2022-09-09T04:10:53;5.75;;;2.20;;
65045;SDS011;54657;52.022;5.534;2022-09-09T04:13:22;3.10;;;2.00;;
65045;SDS011;54657;52.022;5.534;2022-09-09T04:15:52;2.58;;;2.25;;
65045;SDS011;54657;52.022;5.534;2022-09-09T04:18:20;3.70;;;1.90;;
65045;SDS011;54657;52.022;5.534;2022-09-09T04:20:49;4.07;;;2.33;;
65045;SDS011;54657;52.022;5.534;2022-09-09T04:23:16;3.13;;;2.22;;
65045;SDS011;54657;52.022;5.534;2022-09-09T04:25:47;3.22;;;2.17;;
65045;SDS011;54657;52.022;5.534;2022-09-09T04:28:14;2.92;;;2.15;;
65045;SDS011;54657;52.022;5.534;2022-09-09T04:30:41;2.47;;;2.00;;
65045;SDS011;54657;52.022;5.534;2022-09-09T04:33:07;2.95;;;2.10;;
65045;SDS011;54657;52.022;5.534;2022-09-09T04:35:34;2.47;;;2.00;;
65045;SDS011;54657;52.022;5.534;2022-09-09T04:38:00;2.50;;;1.83;;
65045;SDS011;54657;52.022;5.534;2022-09-09T04:40:27;4.07;;;1.90;;
65045;SDS011;54657;52.022;5.534;2022-09-09T04:42:54;2.45;;;1.95;;
65045;SDS011;54657;52.022;5.534;2022-09-09T04:45:20;4.35;;;2.08;;
65045;SDS011;54657;52.022;5.534;2022-09-09T04:47:45;3.95;;;2.25;;
65045;SDS011;54657;52.022;5.534;2022-09-09T04:50:11;6.53;;;2.20;;
65045;SDS011;54657;52.022;5.534;2022-09-09T04:52:37;3.35;;;1.90;;
65045;SDS011;54657;52.022;5.534;2022-09-09T04:55:03;3.30;;;1.98;;
65045;SDS011;54657;52.022;5.534;2022-09-09T04:57:29;2.47;;;2.00;;
65045;SDS011;54657;52.022;5.534;2022-09-09T04:59:56;5.00;;;2.25;;
65045;SDS011;54657;52.022;5.534;2022-09-09T05:02:22;3.47;;;2.40;;
65045;SDS011;54657;52.022;5.534;2022-09-09T05:04:48;5.18;;;2.22;;
65045;SDS011;54657;52.022;5.534;2022-09-09T05:07:14;4.10;;;2.10;;
65045;SDS011;54657;52.022;5.534;2022-09-09T05:09:40;5.88;;;2.00;;
65045;SDS011;54657;52.022;5.534;2022-09-09T05:12:05;2.28;;;1.80;;
65045;SDS011;54657;52.022;5.534;2022-09-09T05:14:31;3.63;;;1.80;;
65045;SDS011;54657;52.022;5.534;2022-09-09T05:16:57;4.05;;;2.05;;
65045;SDS011;54657;52.022;5.534;2022-09-09T05:19:23;2.53;;;1.80;;
65045;SDS011;54657;52.022;5.534;2022-09-09T05:21:48;4.78;;;1.88;;
65045;SDS011;54657;52.022;5.534;2022-09-09T05:24:14;3.70;;;1.95;;
65045;SDS011;54657;52.022;5.534;2022-09-09T05:26:41;3.88;;;2.10;;
65045;SDS011;54657;52.022;5.534;2022-09-09T05:29:08;2.97;;;1.73;;
65045;SDS011;54657;52.022;5.534;2022-09-09T05:31:33;6.88;;;2.20;;
65045;SDS011;54657;52.022;5.534;2022-09-09T05:33:59;4.70;;;1.92;;
65045;SDS011;54657;52.022;5.534;2022-09-09T05:36:25;3.38;;;1.83;;
65045;SDS011;54657;52.022;5.534;2022-09-09T05:38:50;3.47;;;1.70;;
65045;SDS011;54657;52.022;5.534;2022-09-09T05:41:18;7.22;;;2.10;;
65045;SDS011;54657;52.022;5.534;2022-09-09T05:43:44;8.15;;;2.10;;
65045;SDS011;54657;52.022;5.534;2022-09-09T05:46:13;5.88;;;1.80;;
65045;SDS011;54657;52.022;5.534;2022-09-09T05:48:44;3.00;;;1.70;;
65045;SDS011;54657;52.022;5.534;2022-09-09T05:53:46;3.53;;;1.80;;
65045;SDS011;54657;52.022;5.534;2022-09-09T05:56:16;5.45;;;1.90;;
65045;SDS011;54657;52.022;5.534;2022-09-09T05:58:44;4.72;;;1.75;;
65045;SDS011;54657;52.022;5.534;2022-09-09T06:01:15;3.67;;;1.65;;
65045;SDS011;54657;52.022;5.534;2022-09-09T06:03:43;4.10;;;1.95;;
65045;SDS011;54657;52.022;5.534;2022-09-09T06:06:12;4.32;;;2.05;;
65045;SDS011;54657;52.022;5.534;2022-09-09T06:08:41;5.43;;;1.88;;
65045;SDS011;54657;52.022;5.534;2022-09-09T06:11:16;4.50;;;1.65;;
65045;SDS011;54657;52.022;5.534;2022-09-09T06:13:46;6.00;;;2.00;;
65045;SDS011;54657;52.022;5.534;2022-09-09T06:16:16;4.20;;;1.80;;
65045;SDS011;54657;52.022;5.534;2022-09-09T06:18:43;5.07;;;1.90;;
65045;SDS011;54657;52.022;5.534;2022-09-09T06:21:11;6.50;;;2.05;;
65045;SDS011;54657;52.022;5.534;2022-09-09T06:23:40;3.38;;;1.70;;
65045;SDS011;54657;52.022;5.534;2022-09-09T06:26:09;5.47;;;2.03;;
65045;SDS011;54657;52.022;5.534;2022-09-09T06:28:39;5.93;;;1.83;;
65045;SDS011;54657;52.022;5.534;2022-09-09T06:31:08;4.00;;;2.00;;
65045;SDS011;54657;52.022;5.534;2022-09-09T06:33:36;4.90;;;2.00;;
65045;SDS011;54657;52.022;5.534;2022-09-09T06:36:06;5.97;;;1.90;;
65045;SDS011;54657;52.022;5.534;2022-09-09T06:38:35;6.40;;;2.35;;
65045;SDS011;54657;52.022;5.534;2022-09-09T06:41:00;4.65;;;1.95;;
65045;SDS011;54657;52.022;5.534;2022-09-09T06:43:26;2.90;;;2.08;;
65045;SDS011;54657;52.022;5.534;2022-09-09T06:45:59;6.70;;;2.00;;
65045;SDS011;54657;52.022;5.534;2022-09-09T06:48:27;4.95;;;1.80;;
65045;SDS011;54657;52.022;5.534;2022-09-09T06:51:00;4.05;;;1.52;;
65045;SDS011;54657;52.022;5.534;2022-09-09T06:53:30;6.15;;;2.08;;
65045;SDS011;54657;52.022;5.534;2022-09-09T06:55:58;4.03;;;1.48;;
65045;SDS011;54657;52.022;5.534;2022-09-09T06:58:45;5.00;;;1.63;;
65045;SDS011;54657;52.022;5.534;2022-09-09T07:01:12;4.80;;;1.77;;
65045;SDS011;54657;52.022;5.534;2022-09-09T07:03:40;5.35;;;2.17;;
65045;SDS011;54657;52.022;5.534;2022-09-09T07:06:08;6.40;;;1.92;;
65045;SDS011;54657;52.022;5.534;2022-09-09T07:08:39;5.05;;;1.60;;
65045;SDS011;54657;52.022;5.534;2022-09-09T07:11:04;7.18;;;1.95;;
65045;SDS011;54657;52.022;5.534;2022-09-09T07:13:31;6.32;;;1.95;;
65045;SDS011;54657;52.022;5.534;2022-09-09T07:16:04;3.97;;;1.92;;
65045;SDS011;54657;52.022;5.534;2022-09-09T07:18:30;4.25;;;2.20;;
65045;SDS011;54657;52.022;5.534;2022-09-09T07:20:56;8.88;;;2.13;;
65045;SDS011;54657;52.022;5.534;2022-09-09T07:23:22;8.90;;;2.17;;
65045;SDS011;54657;52.022;5.534;2022-09-09T07:25:48;5.72;;;1.80;;
65045;SDS011;54657;52.022;5.534;2022-09-09T07:28:15;4.65;;;2.35;;
65045;SDS011;54657;52.022;5.534;2022-09-09T07:30:41;5.75;;;1.85;;
65045;SDS011;54657;52.022;5.534;2022-09-09T07:33:07;6.00;;;1.77;;
65045;SDS011;54657;52.022;5.534;2022-09-09T07:35:34;7.72;;;2.03;;
65045;SDS011;54657;52.022;5.534;2022-09-09T07:38:01;6.47;;;1.95;;
65045;SDS011;54657;52.022;5.534;2022-09-09T07:40:28;5.32;;;2.00;;
65045;SDS011;54657;52.022;5.534;2022-09-09T07:42:55;9.60;;;1.80;;
65045;SDS011;54657;52.022;5.534;2022-09-09T07:45:21;5.57;;;1.90;;
65045;SDS011;54657;52.022;5.534;2022-09-09T07:47:46;7.22;;;1.95;;
65045;SDS011;54657;52.022;5.534;2022-09-09T07:50:13;8.43;;;2.00;;
65045;SDS011;54657;52.022;5.534;2022-09-09T07:52:40;3.92;;;1.60;;
65045;SDS011;54657;52.022;5.534;2022-09-09T07:55:06;8.55;;;1.88;;
65045;SDS011;54657;52.022;5.534;2022-09-09T07:57:31;8.43;;;1.73;;
65045;SDS011;54657;52.022;5.534;2022-09-09T07:59:57;5.47;;;1.70;;
65045;SDS011;54657;52.022;5.534;2022-09-09T08:02:23;7.70;;;1.90;;
65045;SDS011;54657;52.022;5.534;2022-09-09T08:04:50;6.50;;;1.80;;
65045;SDS011;54657;52.022;5.534;2022-09-09T08:07:16;6.07;;;1.65;;
65045;SDS011;54657;52.022;5.534;2022-09-09T08:09:42;6.47;;;1.50;;
65045;SDS011;54657;52.022;5.534;2022-09-09T08:12:08;6.00;;;1.83;;
65045;SDS011;54657;52.022;5.534;2022-09-09T08:14:35;7.20;;;1.90;;
65045;SDS011;54657;52.022;5.534;2022-09-09T08:17:01;6.93;;;1.52;;
65045;SDS011;54657;52.022;5.534;2022-09-09T08:19:27;7.47;;;1.90;;
65045;SDS011;54657;52.022;5.534;2022-09-09T08:21:55;3.45;;;1.30;;
65045;SDS011;54657;52.022;5.534;2022-09-09T08:24:20;6.28;;;1.90;;
65045;SDS011;54657;52.022;5.534;2022-09-09T08:26:48;3.40;;;1.40;;
65045;SDS011;54657;52.022;5.534;2022-09-09T08:29:14;4.65;;;1.50;;
65045;SDS011;54657;52.022;5.534;2022-09-09T08:31:50;4.18;;;1.52;;
65045;SDS011;54657;52.022;5.534;2022-09-09T08:34:19;8.15;;;1.83;;
65045;SDS011;54657;52.022;5.534;2022-09-09T08:36:45;8.30;;;1.98;;
65045;SDS011;54657;52.022;5.534;2022-09-09T08:39:16;7.88;;;2.15;;
65045;SDS011;54657;52.022;5.534;2022-09-09T08:41:46;6.95;;;2.03;;
65045;SDS011;54657;52.022;5.534;2022-09-09T08:58:09;7.40;;;2.03;;
65045;SDS011;54657;52.022;5.534;2022-09-09T09:09:02;7.65;;;1.63;;
65045;SDS011;54657;52.022;5.534;2022-09-09T09:11:47;7.22;;;1.70;;
65045;SDS011;54657;52.022;5.534;2022-09-09T09:14:29;8.05;;;1.88;;
65045;SDS011;54657;52.022;5.534;2022-09-09T09:19:24;5.03;;;2.10;;
65045;SDS011;54657;52.022;5.534;2022-09-09T09:21:54;7.05;;;1.83;;
65045;SDS011;54657;52.022;5.534;2022-09-09T09:24:25;6.78;;;1.58;;
65045;SDS011;54657;52.022;5.534;2022-09-09T09:27:00;5.22;;;1.48;;
65045;SDS011;54657;52.022;5.534;2022-09-09T09:29:46;3.25;;;1.40;;
65045;SDS011;54657;52.022;5.534;2022-09-09T09:32:16;4.85;;;1.92;;
65045;SDS011;54657;52.022;5.534;2022-09-09T09:34:52;4.13;;;1.60;;
65045;SDS011;54657;52.022;5.534;2022-09-09T09:37:27;5.13;;;2.28;;
65045;SDS011;54657;52.022;5.534;2022-09-09T09:39:55;6.38;;;1.45;;
65045;SDS011;54657;52.022;5.534;2022-09-09T09:42:20;5.13;;;1.67;;
65045;SDS011;54657;52.022;5.534;2022-09-09T09:44:46;4.28;;;1.30;;
65045;SDS011;54657;52.022;5.534;2022-09-09T09:49:37;4.95;;;1.35;;
65045;SDS011;54657;52.022;5.534;2022-09-09T09:52:03;3.70;;;1.23;;
65045;SDS011;54657;52.022;5.534;2022-09-09T09:54:32;4.93;;;1.40;;
65045;SDS011;54657;52.022;5.534;2022-09-09T09:57:12;4.53;;;1.50;;
65045;SDS011;54657;52.022;5.534;2022-09-09T09:59:40;6.35;;;1.70;;
65045;SDS011;54657;52.022;5.534;2022-09-09T10:04:44;4.13;;;1.40;;
65045;SDS011;54657;52.022;5.534;2022-09-09T10:07:20;6.38;;;1.73;;
65045;SDS011;54657;52.022;5.534;2022-09-09T10:09:54;3.25;;;1.55;;
65045;SDS011;54657;52.022;5.534;2022-09-09T10:15:07;5.00;;;1.58;;
65045;SDS011;54657;52.022;5.534;2022-09-09T10:17:58;3.83;;;1.33;;
65045;SDS011;54657;52.022;5.534;2022-09-09T10:23:23;3.95;;;1.50;;
65045;SDS011;54657;52.022;5.534;2022-09-09T10:36:25;3.88;;;1.33;;
65045;SDS011;54657;52.022;5.534;2022-09-09T10:41:44;4.18;;;1.40;;
65045;SDS011;54657;52.022;5.534;2022-09-09T10:44:25;3.70;;;1.63;;
65045;SDS011;54657;52.022;5.534;2022-09-09T10:55:00;4.82;;;1.60;;
65045;SDS011;54657;52.022;5.534;2022-09-09T10:57:40;5.65;;;1.92;;
65045;SDS011;54657;52.022;5.534;2022-09-09T11:02:47;5.45;;;1.60;;
65045;SDS011;54657;52.022;5.534;2022-09-09T11:08:09;4.50;;;1.80;;
65045;SDS011;54657;52.022;5.534;2022-09-09T11:13:46;9.70;;;2.38;;
65045;SDS011;54657;52.022;5.534;2022-09-09T11:18:47;4.85;;;1.58;;
65045;SDS011;54657;52.022;5.534;2022-09-09T11:21:21;4.00;;;1.75;;
65045;SDS011;54657;52.022;5.534;2022-09-09T11:23:54;4.00;;;1.58;;
65045;SDS011;54657;52.022;5.534;2022-09-09T11:26:41;4.25;;;1.73;;
65045;SDS011;54657;52.022;5.534;2022-09-09T11:40:08;5.60;;;1.95;;
65045;SDS011;54657;52.022;5.534;2022-09-09T11:42:40;6.60;;;2.00;;
65045;SDS011;54657;52.022;5.534;2022-09-09T11:45:10;5.35;;;2.22;;
65045;SDS011;54657;52.022;5.534;2022-09-09T11:47:56;6.45;;;2.42;;
65045;SDS011;54657;52.022;5.534;2022-09-09T11:52:49;6.15;;;2.03;;
65045;SDS011;54657;52.022;5.534;2022-09-09T11:55:31;5.18;;;2.03;;
65045;SDS011;54657;52.022;5.534;2022-09-09T11:58:00;5.00;;;1.80;;
65045;SDS011;54657;52.022;5.534;2022-09-09T12:00:36;5.22;;;1.77;;
65045;SDS011;54657;52.022;5.534;2022-09-09T12:03:03;4.70;;;2.00;;
65045;SDS011;54657;52.022;5.534;2022-09-09T12:05:38;4.82;;;1.75;;
65045;SDS011;54657;52.022;5.534;2022-09-09T12:08:05;4.80;;;1.83;;
65045;SDS011;54657;52.022;5.534;2022-09-09T12:10:35;3.25;;;1.60;;
65045;SDS011;54657;52.022;5.534;2022-09-09T12:13:18;4.10;;;1.65;;
65045;SDS011;54657;52.022;5.534;2022-09-09T12:15:49;5.20;;;2.03;;
65045;SDS011;54657;52.022;5.534;2022-09-09T12:18:22;3.45;;;1.40;;
65045;SDS011;54657;52.022;5.534;2022-09-09T12:24:02;3.20;;;1.35;;
65045;SDS011;54657;52.022;5.534;2022-09-09T12:37:06;4.05;;;1.75;;
65045;SDS011;54657;52.022;5.534;2022-09-09T12:39:51;3.05;;;1.65;;
65045;SDS011;54657;52.022;5.534;2022-09-09T12:42:22;5.20;;;1.50;;
65045;SDS011;54657;52.022;5.534;2022-09-09T12:44:54;4.30;;;1.80;;
65045;SDS011;54657;52.022;5.534;2022-09-09T12:50:23;4.07;;;1.75;;
65045;SDS011;54657;52.022;5.534;2022-09-09T12:52:56;4.28;;;1.90;;
65045;SDS011;54657;52.022;5.534;2022-09-09T12:55:25;3.35;;;1.45;;
65045;SDS011;54657;52.022;5.534;2022-09-09T12:57:55;3.88;;;1.40;;
65045;SDS011;54657;52.022;5.534;2022-09-09T13:00:23;6.03;;;1.60;;
65045;SDS011;54657;52.022;5.534;2022-09-09T13:02:53;2.80;;;1.40;;
65045;SDS011;54657;52.022;5.534;2022-09-09T13:05:21;4.97;;;1.38;;
65045;SDS011;54657;52.022;5.534;2022-09-09T13:07:52;4.07;;;1.88;;
65045;SDS011;54657;52.022;5.534;2022-09-09T13:10:27;4.25;;;1.70;;
65045;SDS011;54657;52.022;5.534;2022-09-09T13:12:57;3.67;;;1.63;;
65045;SDS011;54657;52.022;5.534;2022-09-09T13:15:24;2.90;;;1.50;;
65045;SDS011;54657;52.022;5.534;2022-09-09T13:17:54;3.25;;;1.30;;
65045;SDS011;54657;52.022;5.534;2022-09-09T13:20:26;7.85;;;1.80;;
65045;SDS011;54657;52.022;5.534;2022-09-09T13:22:53;4.22;;;1.60;;
65045;SDS011;54657;52.022;5.534;2022-09-09T13:25:24;3.58;;;1.17;;
65045;SDS011;54657;52.022;5.534;2022-09-09T13:27:58;2.70;;;1.30;;
65045;SDS011;54657;52.022;5.534;2022-09-09T13:35:29;4.30;;;1.70;;
65045;SDS011;54657;52.022;5.534;2022-09-09T13:37:55;3.30;;;1.35;;
65045;SDS011;54657;52.022;5.534;2022-09-09T13:40:21;2.88;;;1.40;;
65045;SDS011;54657;52.022;5.534;2022-09-09T13:42:51;3.75;;;1.20;;
65045;SDS011;54657;52.022;5.534;2022-09-09T13:45:20;4.90;;;1.80;;
65045;SDS011;54657;52.022;5.534;2022-09-09T13:47:47;6.20;;;1.55;;
65045;SDS011;54657;52.022;5.534;2022-09-09T13:50:27;4.80;;;1.50;;
65045;SDS011;54657;52.022;5.534;2022-09-09T13:52:57;4.85;;;2.00;;
65045;SDS011;54657;52.022;5.534;2022-09-09T13:55:24;3.50;;;1.45;;
65045;SDS011;54657;52.022;5.534;2022-09-09T13:57:57;5.00;;;1.58;;
65045;SDS011;54657;52.022;5.534;2022-09-09T14:00:28;3.47;;;1.48;;
65045;SDS011;54657;52.022;5.534;2022-09-09T14:02:56;4.88;;;1.60;;
65045;SDS011;54657;52.022;5.534;2022-09-09T14:05:21;3.50;;;1.83;;
65045;SDS011;54657;52.022;5.534;2022-09-09T14:07:47;2.97;;;1.60;;
65045;SDS011;54657;52.022;5.534;2022-09-09T14:10:14;6.68;;;2.10;;
65045;SDS011;54657;52.022;5.534;2022-09-09T14:12:39;2.78;;;1.15;;
65045;SDS011;54657;52.022;5.534;2022-09-09T14:15:06;2.35;;;1.10;;
65045;SDS011;54657;52.022;5.534;2022-09-09T14:17:32;1.80;;;1.20;;
65045;SDS011;54657;52.022;5.534;2022-09-09T14:19:59;2.13;;;1.35;;
65045;SDS011;54657;52.022;5.534;2022-09-09T14:22:25;3.15;;;1.55;;
65045;SDS011;54657;52.022;5.534;2022-09-09T14:24:50;3.92;;;1.30;;
65045;SDS011;54657;52.022;5.534;2022-09-09T14:27:16;3.13;;;1.38;;
65045;SDS011;54657;52.022;5.534;2022-09-09T14:29:43;4.72;;;1.80;;
65045;SDS011;54657;52.022;5.534;2022-09-09T14:32:09;4.88;;;1.30;;
65045;SDS011;54657;52.022;5.534;2022-09-09T14:34:35;3.58;;;1.58;;
65045;SDS011;54657;52.022;5.534;2022-09-09T14:37:01;4.15;;;1.50;;
65045;SDS011;54657;52.022;5.534;2022-09-09T14:39:26;3.88;;;1.75;;
65045;SDS011;54657;52.022;5.534;2022-09-09T14:41:52;3.00;;;1.38;;
65045;SDS011;54657;52.022;5.534;2022-09-09T14:44:18;2.55;;;1.27;;
65045;SDS011;54657;52.022;5.534;2022-09-09T14:46:43;2.83;;;1.40;;
65045;SDS011;54657;52.022;5.534;2022-09-09T14:49:09;3.40;;;1.48;;
65045;SDS011;54657;52.022;5.534;2022-09-09T14:51:37;6.45;;;1.40;;
65045;SDS011;54657;52.022;5.534;2022-09-09T14:54:03;4.03;;;1.40;;
65045;SDS011;54657;52.022;5.534;2022-09-09T14:56:30;3.70;;;1.38;;
65045;SDS011;54657;52.022;5.534;2022-09-09T14:58:57;3.30;;;1.15;;
65045;SDS011;54657;52.022;5.534;2022-09-09T15:01:25;2.70;;;1.10;;
65045;SDS011;54657;52.022;5.534;2022-09-09T15:03:54;2.92;;;1.25;;
65045;SDS011;54657;52.022;5.534;2022-09-09T15:06:30;4.25;;;1.35;;
65045;SDS011;54657;52.022;5.534;2022-09-09T15:09:03;1.67;;;1.10;;
65045;SDS011;54657;52.022;5.534;2022-09-09T15:11:29;0.95;;;0.95;;
65045;SDS011;54657;52.022;5.534;2022-09-09T15:13:58;4.07;;;1.33;;
65045;SDS011;54657;52.022;5.534;2022-09-09T15:16:24;2.70;;;1.15;;
65045;SDS011;54657;52.022;5.534;2022-09-09T15:18:52;1.95;;;0.93;;
65045;SDS011;54657;52.022;5.534;2022-09-09T15:21:20;2.90;;;1.17;;
65045;SDS011;54657;52.022;5.534;2022-09-09T15:23:48;1.90;;;1.02;;
65045;SDS011;54657;52.022;5.534;2022-09-09T15:26:14;3.25;;;1.25;;
65045;SDS011;54657;52.022;5.534;2022-09-09T15:28:41;3.65;;;1.35;;
65045;SDS011;54657;52.022;5.534;2022-09-09T15:31:27;3.03;;;1.08;;
65045;SDS011;54657;52.022;5.534;2022-09-09T15:33:56;2.70;;;1.30;;
65045;SDS011;54657;52.022;5.534;2022-09-09T15:36:27;2.15;;;1.00;;
65045;SDS011;54657;52.022;5.534;2022-09-09T15:38:54;5.10;;;1.45;;
65045;SDS011;54657;52.022;5.534;2022-09-09T15:41:20;2.88;;;1.20;;
65045;SDS011;54657;52.022;5.534;2022-09-09T15:43:51;2.90;;;1.20;;
65045;SDS011;54657;52.022;5.534;2022-09-09T15:48:53;1.80;;;1.00;;
65045;SDS011;54657;52.022;5.534;2022-09-09T15:51:20;1.35;;;0.98;;
65045;SDS011;54657;52.022;5.534;2022-09-09T15:53:47;2.63;;;1.00;;
65045;SDS011;54657;52.022;5.534;2022-09-09T15:56:13;2.42;;;0.80;;
65045;SDS011;54657;52.022;5.534;2022-09-09T15:58:38;2.03;;;1.70;;
65045;SDS011;54657;52.022;5.534;2022-09-09T16:01:08;1.98;;;1.40;;
65045;SDS011;54657;52.022;5.534;2022-09-09T16:03:36;3.17;;;1.30;;
65045;SDS011;54657;52.022;5.534;2022-09-09T16:06:03;2.55;;;1.13;;
65045;SDS011;54657;52.022;5.534;2022-09-09T16:08:33;4.13;;;1.20;;
65045;SDS011;54657;52.022;5.534;2022-09-09T16:11:11;2.17;;;1.38;;
65045;SDS011;54657;52.022;5.534;2022-09-09T16:13:40;3.97;;;2.83;;
65045;SDS011;54657;52.022;5.534;2022-09-09T16:16:09;2.53;;;1.35;;
65045;SDS011;54657;52.022;5.534;2022-09-09T16:18:37;2.85;;;1.20;;
65045;SDS011;54657;52.022;5.534;2022-09-09T16:21:21;3.60;;;1.33;;
65045;SDS011;54657;52.022;5.534;2022-09-09T16:23:49;4.80;;;1.85;;
65045;SDS011;54657;52.022;5.534;2022-09-09T16:26:16;5.63;;;1.30;;
65045;SDS011;54657;52.022;5.534;2022-09-09T16:28:43;12.43;;;7.80;;
65045;SDS011;54657;52.022;5.534;2022-09-09T16:31:15;26.40;;;16.23;;
65045;SDS011;54657;52.022;5.534;2022-09-09T16:33:43;50.00;;;30.75;;
65045;SDS011;54657;52.022;5.534;2022-09-09T16:36:09;18.08;;;12.75;;
65045;SDS011;54657;52.022;5.534;2022-09-09T16:38:37;34.80;;;22.42;;
65045;SDS011;54657;52.022;5.534;2022-09-09T16:41:04;25.83;;;18.58;;
65045;SDS011;54657;52.022;5.534;2022-09-09T16:43:31;15.00;;;11.23;;
65045;SDS011;54657;52.022;5.534;2022-09-09T16:45:58;9.20;;;7.25;;
65045;SDS011;54657;52.022;5.534;2022-09-09T16:48:25;6.25;;;4.28;;
65045;SDS011;54657;52.022;5.534;2022-09-09T16:51:00;7.90;;;5.40;;
65045;SDS011;54657;52.022;5.534;2022-09-09T16:53:33;6.85;;;3.00;;
65045;SDS011;54657;52.022;5.534;2022-09-09T16:56:06;6.38;;;4.75;;
65045;SDS011;54657;52.022;5.534;2022-09-09T16:58:32;5.60;;;3.00;;
65045;SDS011;54657;52.022;5.534;2022-09-09T17:00:58;2.70;;;1.60;;
65045;SDS011;54657;52.022;5.534;2022-09-09T17:03:24;2.95;;;1.52;;
65045;SDS011;54657;52.022;5.534;2022-09-09T17:05:50;5.97;;;3.10;;
65045;SDS011;54657;52.022;5.534;2022-09-09T17:08:16;5.90;;;4.03;;
65045;SDS011;54657;52.022;5.534;2022-09-09T17:10:42;4.13;;;2.70;;
65045;SDS011;54657;52.022;5.534;2022-09-09T17:13:08;5.55;;;4.05;;
65045;SDS011;54657;52.022;5.534;2022-09-09T17:15:38;8.85;;;6.05;;
65045;SDS011;54657;52.022;5.534;2022-09-09T17:18:07;4.50;;;2.50;;
65045;SDS011;54657;52.022;5.534;2022-09-09T17:20:35;8.75;;;5.32;;
65045;SDS011;54657;52.022;5.534;2022-09-09T17:23:01;12.95;;;7.65;;
65045;SDS011;54657;52.022;5.534;2022-09-09T17:25:27;10.13;;;4.93;;
65045;SDS011;54657;52.022;5.534;2022-09-09T17:27:52;3.65;;;2.80;;
65045;SDS011;54657;52.022;5.534;2022-09-09T17:30:18;6.10;;;3.72;;
65045;SDS011;54657;52.022;5.534;2022-09-09T17:32:44;3.92;;;2.13;;
65045;SDS011;54657;52.022;5.534;2022-09-09T17:35:11;4.18;;;1.70;;
65045;SDS011;54657;52.022;5.534;2022-09-09T17:37:37;2.83;;;1.83;;
65045;SDS011;54657;52.022;5.534;2022-09-09T17:40:03;2.03;;;1.45;;